createdAt,value
2022-08-22T00:01:28.109Z,101005.97
2022-08-22T00:02:45.362Z,100975.00
2022-08-22T00:02:53.534Z,100969.50
2022-08-22T00:02:53.748Z,100975.63
2022-08-22T00:03:12.821Z,100979.31
2022-08-22T00:04:28.756Z,101014.38
2022-08-22T00:07:39.170Z,101021.09
2022-08-22T00:10:46.737Z,101025.00
2022-08-22T00:13:26.164Z,101024.19
2022-08-22T00:16:09.617Z,101013.25
2022-08-22T00:18:51.198Z,101019.97
2022-08-22T00:21:27.672Z,101030.47
2022-08-22T00:24:37.215Z,101031.47
2022-08-22T00:27:18.075Z,101019.16
2022-08-22T00:29:54.723Z,101028.78
2022-08-22T00:32:43.038Z,101022.91
2022-08-22T00:35:26.989Z,101022.22
2022-08-22T00:38:18.769Z,101021.91
2022-08-22T00:41:31.635Z,101030.31
2022-08-22T00:44:28.201Z,101021.66
2022-08-22T00:47:18.637Z,101023.87
2022-08-22T00:50:04.535Z,101026.84
2022-08-22T00:52:59.912Z,101022.78
2022-08-22T00:56:03.476Z,101022.78
2022-08-22T00:59:11.996Z,101022.22
2022-08-22T01:02:15.140Z,101025.28
2022-08-22T01:04:58.313Z,101025.56
2022-08-22T01:07:49.237Z,101030.75
2022-08-22T01:10:28.721Z,101023.03
2022-08-22T01:13:28.499Z,101032.16
2022-08-22T01:16:24.683Z,101027.13
2022-08-22T01:19:07.078Z,101027.25
2022-08-22T01:21:59.122Z,101021.38
2022-08-22T01:24:36.016Z,101026.28
2022-08-22T01:27:35.873Z,101026.81
2022-08-22T01:30:39.466Z,101026.97
2022-08-22T01:33:35.294Z,101025.03
2022-08-22T01:36:18.450Z,101025.88
2022-08-22T01:39:14.324Z,101031.59
2022-08-22T01:42:07.127Z,101034.81
2022-08-22T01:44:56.369Z,101023.91
2022-08-22T01:47:37.514Z,101023.06
2022-08-22T01:50:26.024Z,101024.59
2022-08-22T01:53:06.089Z,101033.00
2022-08-22T01:56:25.873Z,101022.50
2022-08-22T01:59:02.879Z,101026.97
2022-08-22T02:01:42.603Z,101028.38
2022-08-22T02:04:16.421Z,101028.81
2022-08-22T02:07:09.260Z,101025.56
2022-08-22T02:10:05.365Z,101029.06
2022-08-22T02:12:45.338Z,101021.09
2022-08-22T02:15:23.076Z,101029.78
2022-08-22T02:18:02.936Z,101016.34
2022-08-22T02:20:36.891Z,101024.44
2022-08-22T02:23:04.632Z,101021.09
2022-08-22T02:25:46.813Z,101019.44
2022-08-22T02:28:39.455Z,101024.31
2022-08-22T02:31:27.209Z,101030.19
2022-08-22T02:33:58.679Z,101040.44
2022-08-22T02:36:50.729Z,101040.13
2022-08-22T02:39:50.497Z,101039.56
2022-08-22T02:42:23.323Z,101043.63
2022-08-22T02:45:04.077Z,101043.06
2022-08-22T02:48:13.484Z,101036.34
2022-08-22T02:51:02.023Z,101031.16
2022-08-22T02:53:46.468Z,101038.31
2022-08-22T02:56:22.305Z,101039.41
2022-08-22T02:59:12.403Z,101034.41
2022-08-22T03:01:44.991Z,101027.66
2022-08-22T03:04:46.966Z,101040.25
2022-08-22T03:07:20.722Z,101037.59
2022-08-22T03:10:10.992Z,101046.31
2022-08-22T03:13:11.535Z,101034.97
2022-08-22T03:15:49.370Z,101047.00
2022-08-22T03:18:17.056Z,101038.03
2022-08-22T03:20:54.270Z,101044.88
2022-08-22T03:24:12.202Z,101041.25
2022-08-22T03:26:52.584Z,101047.97
2022-08-22T03:29:29.357Z,101049.09
2022-08-22T03:32:09.419Z,101048.53
2022-08-22T03:34:37.942Z,101058.03
2022-08-22T03:37:24.530Z,101058.72
2022-08-22T03:39:55.374Z,101058.34
2022-08-22T03:42:41.519Z,101056.94
2022-08-22T03:45:21.190Z,101057.34
2022-08-22T03:48:12.295Z,101053.28
2022-08-22T03:51:02.085Z,101053.00
2022-08-22T03:54:07.681Z,101053.00
2022-08-22T03:57:07.672Z,101055.22
2022-08-22T04:00:00.307Z,101054.06
2022-08-22T04:02:49.149Z,101056.03
2022-08-22T04:05:28.848Z,101069.25
2022-08-22T04:08:14.571Z,101061.84
2022-08-22T04:11:14.698Z,101067.16
2022-08-22T04:14:19.349Z,101071.31
2022-08-22T04:17:05.650Z,101072.69
2022-08-22T04:20:11.035Z,101065.78
2022-08-22T04:23:03.796Z,101064.25
2022-08-22T04:28:44.092Z,101067.75
2022-08-22T04:31:14.558Z,101065.62
2022-08-22T04:34:10.146Z,101056.72
2022-08-22T04:36:48.534Z,101065.47
2022-08-22T04:39:22.212Z,101065.09
2022-08-22T04:42:11.135Z,101068.50
2022-08-22T04:44:52.807Z,101066.09
2022-08-22T04:48:01.849Z,101066.50
2022-08-22T04:50:41.249Z,101068.28
2022-08-22T04:53:29.698Z,101060.66
2022-08-22T04:56:45.491Z,101062.88
2022-08-22T04:59:17.363Z,101060.75
2022-08-22T05:01:47.228Z,101063.38
2022-08-22T05:04:23.436Z,101063.66
2022-08-22T05:06:57.102Z,101054.53
2022-08-22T05:09:31.012Z,101056.06
2022-08-22T05:12:07.593Z,101061.63
2022-08-22T05:15:10.404Z,101058.16
2022-08-22T05:17:41.989Z,101047.19
2022-08-22T05:20:15.833Z,101044.84
2022-08-22T05:22:47.949Z,101044.66
2022-08-22T05:25:22.204Z,101048.50
2022-08-22T05:28:05.571Z,101048.56
2022-08-22T05:30:35.299Z,101052.91
2022-08-22T05:33:27.613Z,101040.94
2022-08-22T05:36:00.532Z,101058.03
2022-08-22T05:38:32.423Z,101049.97
2022-08-22T05:41:08.289Z,101043.72
2022-08-22T05:43:43.663Z,101055.03
2022-08-22T05:46:26.963Z,101055.28
2022-08-22T05:49:00.176Z,101058.09
2022-08-22T05:51:40.129Z,101051.16
2022-08-22T05:54:21.961Z,101043.66
2022-08-22T05:57:29.202Z,101048.56
2022-08-22T06:00:11.797Z,101053.41
2022-08-22T06:02:58.340Z,101048.62
2022-08-22T06:05:29.563Z,101056.47
2022-08-22T06:08:34.785Z,101042.75
2022-08-22T06:11:15.206Z,101052.28
2022-08-22T06:13:52.290Z,101051.53
2022-08-22T06:16:33.561Z,101061.03
2022-08-22T06:19:05.090Z,101053.19
2022-08-22T06:21:51.094Z,101050.50
2022-08-22T06:24:28.044Z,101052.12
2022-08-22T06:27:04.320Z,101059.03
2022-08-22T06:29:46.124Z,101057.00
2022-08-22T06:35:15.840Z,101057.22
2022-08-22T06:37:46.634Z,101050.56
2022-08-22T06:40:17.699Z,101052.53
2022-08-22T06:42:50.763Z,101062.66
2022-08-22T06:45:25.658Z,101065.84
2022-08-22T06:48:20.409Z,101062.53
2022-08-22T06:50:58.885Z,101064.91
2022-08-22T06:54:03.897Z,101063.03
2022-08-22T06:56:40.066Z,101064.28
2022-08-22T06:59:13.065Z,101058.25
2022-08-22T07:01:51.092Z,101050.91
2022-08-22T07:04:26.289Z,101063.47
2022-08-22T07:07:01.037Z,101053.91
2022-08-22T07:09:32.493Z,101054.69
2022-08-22T07:12:04.959Z,101051.72
2022-08-22T07:14:41.894Z,101056.69
2022-08-22T07:17:19.140Z,101060.00
2022-08-22T07:19:55.778Z,101053.97
2022-08-22T07:22:28.935Z,101063.44
2022-08-22T07:25:03.347Z,101064.53
2022-08-22T07:28:08.080Z,101058.09
2022-08-22T07:30:59.191Z,101063.78
2022-08-22T07:33:50.044Z,101058.69
2022-08-22T07:36:31.794Z,101061.41
2022-08-22T07:39:18.457Z,101060.28
2022-08-22T07:42:14.223Z,101057.25
2022-08-22T07:45:03.457Z,101053.97
2022-08-22T07:47:41.328Z,101055.41
2022-08-22T07:50:17.465Z,101055.78
2022-08-22T07:52:46.443Z,101057.25
2022-08-22T07:55:21.046Z,101059.38
2022-08-22T07:58:04.177Z,101051.41
2022-08-22T08:00:32.995Z,101043.87
2022-08-22T08:03:09.152Z,101049.09
2022-08-22T08:05:38.778Z,101047.47
2022-08-22T08:08:24.809Z,101046.56
2022-08-22T08:10:56.581Z,101047.31
2022-08-22T08:13:34.451Z,101046.41
2022-08-22T08:16:05.238Z,101042.91
2022-08-22T08:18:36.265Z,101040.28
2022-08-22T08:21:08.724Z,101040.28
2022-08-22T08:23:45.465Z,101039.53
2022-08-22T08:26:21.867Z,101042.56
2022-08-22T08:28:54.667Z,101036.94
2022-08-22T08:31:44.637Z,101052.81
2022-08-22T08:34:20.354Z,101044.75
2022-08-22T08:36:52.030Z,101037.97
2022-08-22T08:39:35.134Z,101034.78
2022-08-22T08:42:09.217Z,101039.69
2022-08-22T08:47:59.903Z,101035.97
2022-08-22T08:51:06.640Z,101040.28
2022-08-22T08:53:44.790Z,101039.31
2022-08-22T08:56:19.875Z,101043.69
2022-08-22T08:59:09.906Z,101037.16
2022-08-22T09:02:09.035Z,101037.50
2022-08-22T09:05:13.019Z,101037.69
2022-08-22T09:07:50.436Z,101039.09
2022-08-22T09:10:54.132Z,101036.47
2022-08-22T09:17:21.140Z,101046.59
2022-08-22T09:20:19.458Z,101042.84
2022-08-22T09:23:05.203Z,101047.16
2022-08-22T09:29:16.470Z,101039.03
2022-08-22T09:32:05.776Z,101033.44
2022-08-22T09:34:54.922Z,101042.38
2022-08-22T09:37:58.656Z,101043.53
2022-08-22T09:40:35.424Z,101048.50
2022-08-22T09:43:13.210Z,101037.94
2022-08-22T09:46:01.925Z,101037.34
2022-08-22T09:49:07.140Z,101040.75
2022-08-22T09:51:44.418Z,101042.12
2022-08-22T09:54:18.852Z,101037.97
2022-08-22T09:57:01.478Z,101038.50
2022-08-22T09:59:48.111Z,101035.44
2022-08-22T10:02:43.378Z,101033.97
2022-08-22T10:05:40.402Z,101039.12
2022-08-22T10:08:33.362Z,101026.53
2022-08-22T10:11:23.855Z,101021.41
2022-08-22T10:14:00.870Z,101028.66
2022-08-22T10:16:57.815Z,101022.91
2022-08-22T10:19:42.088Z,101021.69
2022-08-22T10:22:47.733Z,101024.94
2022-08-22T10:25:33.791Z,101016.50
2022-08-22T10:28:22.359Z,101020.72
2022-08-22T10:31:25.193Z,101016.75
2022-08-22T10:34:02.182Z,101021.47
2022-08-22T10:36:45.544Z,101026.94
2022-08-22T10:39:23.831Z,101026.94
2022-08-22T10:42:23.616Z,101026.78
2022-08-22T10:45:16.504Z,101029.16
2022-08-22T10:47:54.652Z,101024.72
2022-08-22T10:50:36.939Z,101027.81
2022-08-22T10:53:29.016Z,101020.66
2022-08-22T10:56:06.702Z,101017.44
2022-08-22T10:58:40.916Z,101012.28
2022-08-22T11:01:37.808Z,101020.22
2022-08-22T11:04:18.853Z,101018.03
2022-08-22T11:07:14.772Z,101009.22
2022-08-22T11:09:44.477Z,101009.75
2022-08-22T11:12:41.721Z,101019.91
2022-08-22T11:15:26.242Z,101016.87
2022-08-22T11:18:21.248Z,101014.47
2022-08-22T11:20:59.727Z,101015.81
2022-08-22T11:23:43.024Z,101014.38
2022-08-22T11:26:29.913Z,101018.75
2022-08-22T11:29:18.804Z,101009.97
2022-08-22T11:31:52.213Z,101011.06
2022-08-22T11:34:38.612Z,101004.84
2022-08-22T11:37:15.440Z,101002.13
2022-08-22T11:39:57.652Z,101001.75
2022-08-22T11:42:47.439Z,100999.31
2022-08-22T11:45:23.954Z,101001.19
2022-08-22T11:48:00.748Z,100998.56
2022-08-22T11:50:35.304Z,100997.00
2022-08-22T11:53:07.840Z,100997.09
2022-08-22T11:56:05.787Z,100993.88
2022-08-22T11:58:56.683Z,101002.09
2022-08-22T12:01:37.107Z,100994.03
2022-08-22T12:04:12.715Z,101006.00
2022-08-22T12:07:11.190Z,100994.84
2022-08-22T12:10:07.132Z,101002.59
2022-08-22T12:13:06.399Z,100999.75
2022-08-22T12:16:00.859Z,100994.03
2022-08-22T12:18:56.500Z,100997.28
2022-08-22T12:21:24.501Z,100986.84
2022-08-22T12:24:00.904Z,100988.09
2022-08-22T12:27:12.577Z,100987.78
2022-08-22T12:30:05.284Z,100991.12
2022-08-22T12:33:03.436Z,100974.62
2022-08-22T12:35:42.494Z,100983.38
2022-08-22T12:38:29.427Z,100985.09
2022-08-22T12:41:28.529Z,100983.13
2022-08-22T12:44:25.455Z,100981.19
2022-08-22T12:47:02.828Z,100981.66
2022-08-22T12:50:01.341Z,100977.81
2022-08-22T12:52:59.033Z,100970.28
2022-08-22T12:55:36.679Z,100971.41
2022-08-22T12:58:56.089Z,100977.69
2022-08-22T13:01:34.075Z,100971.94
2022-08-22T13:04:08.238Z,100981.81
2022-08-22T13:06:37.976Z,100985.75
2022-08-22T13:09:28.915Z,100983.28
2022-08-22T13:12:04.998Z,100986.06
2022-08-22T13:14:35.125Z,100975.06
2022-08-22T13:17:24.320Z,100986.13
2022-08-22T13:20:21.267Z,100981.97
2022-08-22T13:22:49.603Z,100972.16
2022-08-22T13:25:26.587Z,100976.16
2022-08-22T13:27:59.462Z,100978.66
2022-08-22T13:30:33.930Z,100975.66
2022-08-22T13:33:08.934Z,100983.84
2022-08-22T13:35:44.785Z,100977.84
2022-08-22T13:38:28.373Z,100984.75
2022-08-22T13:41:02.344Z,100988.16
2022-08-22T13:43:56.270Z,100981.03
2022-08-22T13:46:28.676Z,100983.91
2022-08-22T13:49:01.119Z,100978.53
2022-08-22T13:51:40.388Z,100980.59
2022-08-22T13:54:11.965Z,100981.53
2022-08-22T13:56:50.629Z,100983.38
2022-08-22T13:59:50.974Z,100978.69
2022-08-22T14:02:47.925Z,100978.78
2022-08-22T14:05:33.541Z,100986.75
2022-08-22T14:08:12.666Z,100977.22
2022-08-22T14:11:02.105Z,100981.16
2022-08-22T14:13:49.653Z,100984.34
2022-08-22T14:16:26.095Z,100984.69
2022-08-22T14:19:06.124Z,100986.06
2022-08-22T14:21:43.457Z,100980.81
2022-08-22T14:24:45.750Z,100982.75
2022-08-22T14:27:27.289Z,100983.88
2022-08-22T14:30:01.665Z,100977.94
2022-08-22T14:32:42.388Z,100980.09
2022-08-22T14:35:34.691Z,100986.50
2022-08-22T14:38:29.936Z,100994.59
2022-08-22T14:41:05.766Z,100985.53
2022-08-22T14:43:57.235Z,100990.31
2022-08-22T14:46:31.936Z,100977.25
2022-08-22T14:49:06.169Z,100990.06
2022-08-22T14:51:34.034Z,100986.91
2022-08-22T14:54:21.394Z,100987.94
2022-08-22T14:56:52.432Z,100992.19
2022-08-22T14:59:35.964Z,100984.88
2022-08-22T15:02:10.569Z,100995.28
2022-08-22T15:04:46.213Z,100987.44
2022-08-22T15:07:33.856Z,100989.84
2022-08-22T15:10:26.910Z,100989.00
2022-08-22T15:13:03.274Z,100982.47
2022-08-22T15:15:41.210Z,100991.56
2022-08-22T15:18:35.336Z,100989.50
2022-08-22T15:21:11.298Z,100995.19
2022-08-22T15:23:45.189Z,100987.84
2022-08-22T15:26:25.084Z,100991.19
2022-08-22T15:29:04.322Z,100997.41
2022-08-22T15:31:33.041Z,100992.78
2022-08-22T15:34:13.634Z,100998.28
2022-08-22T15:37:08.320Z,100996.03
2022-08-22T15:39:58.510Z,100998.72
2022-08-22T15:42:33.453Z,100996.37
2022-08-22T15:45:02.672Z,101001.59
2022-08-22T15:47:41.914Z,100995.41
2022-08-22T15:50:27.680Z,100984.06
2022-08-22T15:53:22.520Z,101003.56
2022-08-22T15:56:05.627Z,100998.34
2022-08-22T15:58:48.964Z,101001.41
2022-08-22T16:01:22.385Z,101007.41
2022-08-22T16:04:05.413Z,101006.41
2022-08-22T16:06:55.233Z,101005.25
2022-08-22T16:09:39.588Z,101005.53
2022-08-22T16:12:27.093Z,101009.72
2022-08-22T16:14:56.037Z,101013.19
2022-08-22T16:17:45.504Z,101014.34
2022-08-22T16:20:20.070Z,101011.91
2022-08-22T16:22:57.000Z,101011.41
2022-08-22T16:25:47.716Z,101018.94
2022-08-22T16:28:41.380Z,101020.22
2022-08-22T16:31:19.197Z,101019.00
2022-08-22T16:33:48.201Z,101033.94
2022-08-22T16:36:44.360Z,101025.84
2022-08-22T16:39:24.074Z,101028.75
2022-08-22T16:41:56.655Z,101025.62
2022-08-22T16:44:30.406Z,101023.47
2022-08-22T16:47:12.127Z,101028.78
2022-08-22T16:49:52.163Z,101041.28
2022-08-22T16:52:26.352Z,101036.59
2022-08-22T16:58:11.084Z,101039.34
2022-08-22T17:01:00.275Z,101040.37
2022-08-22T17:04:09.804Z,101039.34
2022-08-22T17:06:48.152Z,101045.81
2022-08-22T17:09:43.453Z,101039.25
2022-08-22T17:12:17.067Z,101045.22
2022-08-22T17:15:12.523Z,101043.19
2022-08-22T17:18:17.742Z,101032.97
2022-08-22T17:20:56.422Z,101043.16
2022-08-22T17:23:38.936Z,101048.66
2022-08-22T17:26:28.538Z,101052.41
2022-08-22T17:29:27.299Z,101053.25
2022-08-22T17:32:17.063Z,101048.47
2022-08-22T17:34:58.841Z,101045.47
2022-08-22T17:37:38.067Z,101048.59
2022-08-22T17:40:36.675Z,101046.31
2022-08-22T17:43:07.882Z,101055.13
2022-08-22T17:45:50.742Z,101046.66
2022-08-22T17:48:26.156Z,101057.81
2022-08-22T17:51:13.591Z,101048.44
2022-08-22T17:53:50.923Z,101056.12
2022-08-22T17:56:41.338Z,101062.19
2022-08-22T17:59:28.243Z,101055.00
2022-08-22T18:02:02.451Z,101054.37
2022-08-22T18:05:16.756Z,101064.37
2022-08-22T18:07:50.618Z,101062.53
2022-08-22T18:10:25.336Z,101060.44
2022-08-22T18:13:07.359Z,101054.47
2022-08-22T18:15:52.646Z,101058.38
2022-08-22T18:18:32.283Z,101062.44
2022-08-22T18:21:06.463Z,101065.06
2022-08-22T18:23:41.742Z,101059.03
2022-08-22T18:29:53.595Z,101063.00
2022-08-22T18:32:29.669Z,101065.94
2022-08-22T18:35:10.657Z,101062.53
2022-08-22T18:37:47.045Z,101063.00
2022-08-22T18:40:49.687Z,101074.09
2022-08-22T18:43:24.296Z,101070.81
2022-08-22T18:45:52.079Z,101070.22
2022-08-22T18:48:29.884Z,101075.09
2022-08-22T18:51:38.267Z,101067.56
2022-08-22T18:54:11.462Z,101076.28
2022-08-22T18:57:17.454Z,101078.13
2022-08-22T18:59:57.697Z,101068.41
2022-08-22T19:02:28.551Z,101084.66
2022-08-22T19:05:15.272Z,101080.13
2022-08-22T19:07:52.286Z,101087.16
2022-08-22T19:10:48.006Z,101088.00
2022-08-22T19:13:28.899Z,101082.97
2022-08-22T19:16:23.046Z,101085.81
2022-08-22T19:19:17.411Z,101081.72
2022-08-22T19:22:19.699Z,101087.34
2022-08-22T19:25:09.186Z,101096.72
2022-08-22T19:27:58.316Z,101095.53
2022-08-22T19:30:41.732Z,101100.84
2022-08-22T19:33:19.949Z,101094.28
2022-08-22T19:35:54.847Z,101103.62
2022-08-22T19:38:54.270Z,101098.91
2022-08-22T19:41:45.670Z,101101.37
2022-08-22T19:44:20.044Z,101110.16
2022-08-22T19:47:18.304Z,101103.28
2022-08-22T19:50:00.748Z,101098.94
2022-08-22T19:52:34.305Z,101107.09
2022-08-22T19:55:19.124Z,101105.44
2022-08-22T19:57:58.858Z,101103.22
2022-08-22T20:00:53.634Z,101102.28
2022-08-22T20:03:37.748Z,101094.41
2022-08-22T20:06:43.569Z,101105.81
2022-08-22T20:09:28.990Z,101101.81
2022-08-22T20:12:22.765Z,101104.09
2022-08-22T20:14:51.570Z,101105.59
2022-08-22T20:17:25.293Z,101101.37
2022-08-22T20:20:19.239Z,101108.25
2022-08-22T20:23:06.118Z,101107.84
2022-08-22T20:25:49.627Z,101112.66
2022-08-22T20:28:34.872Z,101110.69
2022-08-22T20:31:07.875Z,101115.41
2022-08-22T20:33:40.507Z,101121.66
2022-08-22T20:36:27.615Z,101125.28
2022-08-22T20:39:15.447Z,101132.78
2022-08-22T20:41:50.144Z,101127.75
2022-08-22T20:44:28.667Z,101128.56
2022-08-22T20:47:06.022Z,101120.66
2022-08-22T20:49:46.790Z,101132.69
2022-08-22T20:52:32.653Z,101134.31
2022-08-22T20:55:12.522Z,101133.84
2022-08-22T20:57:55.842Z,101138.00
2022-08-22T21:00:44.796Z,101138.50
2022-08-22T21:03:25.541Z,101133.16
2022-08-22T21:05:53.297Z,101146.69
2022-08-22T21:08:26.368Z,101147.19
2022-08-22T21:11:20.457Z,101152.47
2022-08-22T21:13:49.554Z,101149.53
2022-08-22T21:16:31.689Z,101149.16
2022-08-22T21:19:04.778Z,101148.31
2022-08-22T21:21:34.773Z,101155.84
2022-08-22T21:24:06.641Z,101154.94
2022-08-22T21:26:46.901Z,101150.78
2022-08-22T21:29:14.991Z,101160.62
2022-08-22T21:31:59.066Z,101155.25
2022-08-22T21:34:41.734Z,101162.25
2022-08-22T21:37:22.880Z,101162.94
2022-08-22T21:39:59.580Z,101149.06
2022-08-22T21:42:35.701Z,101162.50
2022-08-22T21:45:08.590Z,101159.59
2022-08-22T21:47:40.251Z,101156.00
2022-08-22T21:50:25.028Z,101166.97
2022-08-22T21:52:55.846Z,101165.81
2022-08-22T21:55:36.239Z,101163.63
2022-08-22T21:58:35.025Z,101176.97
2022-08-22T22:01:25.056Z,101175.34
2022-08-22T22:03:55.921Z,101167.66
2022-08-22T22:06:23.599Z,101168.28
2022-08-22T22:08:51.429Z,101173.09
2022-08-22T22:11:19.725Z,101169.94
2022-08-22T22:13:47.607Z,101176.37
2022-08-22T22:16:21.387Z,101176.25
2022-08-22T22:18:49.522Z,101182.09
2022-08-22T22:21:18.730Z,101173.59
2022-08-22T22:23:46.819Z,101189.53
2022-08-22T22:26:15.061Z,101185.03
2022-08-22T22:28:50.067Z,101186.59
2022-08-22T22:31:18.631Z,101191.50
2022-08-22T22:33:46.671Z,101191.38
2022-08-22T22:36:23.972Z,101194.47
2022-08-22T22:38:53.796Z,101191.09
2022-08-22T22:41:25.841Z,101188.72
2022-08-22T22:43:55.164Z,101195.84
2022-08-22T22:46:23.295Z,101189.25
2022-08-22T22:48:51.159Z,101192.50
2022-08-22T22:51:20.115Z,101194.13
2022-08-22T22:53:47.889Z,101180.53
2022-08-22T22:56:20.684Z,101187.16
2022-08-22T22:59:01.025Z,101188.69
2022-08-22T23:02:01.815Z,101193.19
2022-08-22T23:04:31.416Z,101192.06
2022-08-22T23:06:59.288Z,101195.44
2022-08-22T23:09:28.280Z,101187.75
2022-08-22T23:12:08.383Z,101191.22
2022-08-22T23:14:36.431Z,101201.75
2022-08-22T23:17:04.671Z,101191.94
2022-08-22T23:19:33.324Z,101196.00
2022-08-22T23:22:02.361Z,101198.22
2022-08-22T23:24:34.077Z,101202.56
2022-08-22T23:27:02.945Z,101203.16
2022-08-22T23:29:30.753Z,101209.44
2022-08-22T23:32:01.778Z,101212.13
2022-08-22T23:34:36.365Z,101203.41
2022-08-22T23:39:52.358Z,101210.59
2022-08-22T23:42:20.226Z,101201.31
2022-08-22T23:44:48.459Z,101203.56
2022-08-22T23:47:16.753Z,101202.00
2022-08-22T23:49:44.846Z,101198.34
2022-08-22T23:52:13.681Z,101207.47
2022-08-22T23:54:42.182Z,101207.16
2022-08-22T23:57:12.073Z,101215.12
2022-08-22T23:59:48.454Z,101201.19
